sensor_id;sensor_type;location;lat;lon;timestamp;temperature;humidity
12926;DHT22;6529;50.566;9.774;2023-02-10T00:01:40;-2.30;99.90
12926;DHT22;6529;50.566;9.774;2023-02-10T00:04:06;-2.40;99.90
12926;DHT22;6529;50.566;9.774;2023-02-10T00:06:32;-2.40;99.90
12926;DHT22;6529;50.566;9.774;2023-02-10T00:09:00;-2.40;99.90
12926;DHT22;6529;50.566;9.774;2023-02-10T00:11:26;-2.40;99.90
12926;DHT22;6529;50.566;9.774;2023-02-10T00:14:12;-2.40;99.90
12926;DHT22;6529;50.566;9.774;2023-02-10T00:16:38;-2.50;99.90
12926;DHT22;6529;50.566;9.774;2023-02-10T00:19:04;-2.50;99.90
12926;DHT22;6529;50.566;9.774;2023-02-10T00:21:29;-2.60;99.90
12926;DHT22;6529;50.566;9.774;2023-02-10T00:23:55;-2.60;99.90
12926;DHT22;6529;50.566;9.774;2023-02-10T00:26:20;-2.70;99.90
12926;DHT22;6529;50.566;9.774;2023-02-10T00:28:46;-2.60;99.90
12926;DHT22;6529;50.566;9.774;2023-02-10T00:31:13;-2.50;99.90
12926;DHT22;6529;50.566;9.774;2023-02-10T00:33:40;-2.60;99.90
12926;DHT22;6529;50.566;9.774;2023-02-10T00:36:08;-2.50;99.90
12926;DHT22;6529;50.566;9.774;2023-02-10T00:38:34;-2.60;99.90
12926;DHT22;6529;50.566;9.774;2023-02-10T00:41:11;-2.60;99.90
12926;DHT22;6529;50.566;9.774;2023-02-10T00:43:37;-2.60;99.90
12926;DHT22;6529;50.566;9.774;2023-02-10T00:46:05;-2.50;99.90
12926;DHT22;6529;50.566;9.774;2023-02-10T00:48:31;-2.60;99.90
12926;DHT22;6529;50.566;9.774;2023-02-10T00:50:57;-2.50;99.90
12926;DHT22;6529;50.566;9.774;2023-02-10T00:53:23;-2.50;99.90
12926;DHT22;6529;50.566;9.774;2023-02-10T00:55:48;-2.60;99.90
12926;DHT22;6529;50.566;9.774;2023-02-10T00:58:14;-2.60;99.90
12926;DHT22;6529;50.566;9.774;2023-02-10T01:00:39;-2.60;99.90
12926;DHT22;6529;50.566;9.774;2023-02-10T01:03:05;-2.60;99.90
12926;DHT22;6529;50.566;9.774;2023-02-10T01:05:30;-2.50;99.90
12926;DHT22;6529;50.566;9.774;2023-02-10T01:07:56;-2.50;99.90
12926;DHT22;6529;50.566;9.774;2023-02-10T01:10:21;-2.50;99.90
12926;DHT22;6529;50.566;9.774;2023-02-10T01:12:47;-2.50;99.90
12926;DHT22;6529;50.566;9.774;2023-02-10T01:15:13;-2.50;99.90
12926;DHT22;6529;50.566;9.774;2023-02-10T01:17:38;-2.50;99.90
12926;DHT22;6529;50.566;9.774;2023-02-10T01:20:05;-2.40;99.90
12926;DHT22;6529;50.566;9.774;2023-02-10T01:22:32;-2.50;99.90
12926;DHT22;6529;50.566;9.774;2023-02-10T01:24:58;-2.60;99.90
12926;DHT22;6529;50.566;9.774;2023-02-10T01:27:23;-2.70;99.90
12926;DHT22;6529;50.566;9.774;2023-02-10T01:29:49;-2.70;99.90
12926;DHT22;6529;50.566;9.774;2023-02-10T01:32:14;-2.80;99.90
12926;DHT22;6529;50.566;9.774;2023-02-10T01:34:40;-2.80;99.90
12926;DHT22;6529;50.566;9.774;2023-02-10T01:37:06;-2.80;99.90
12926;DHT22;6529;50.566;9.774;2023-02-10T01:39:31;-2.90;99.90
12926;DHT22;6529;50.566;9.774;2023-02-10T01:41:57;-2.80;99.90
12926;DHT22;6529;50.566;9.774;2023-02-10T01:46:48;-2.80;99.90
12926;DHT22;6529;50.566;9.774;2023-02-10T01:49:16;-2.80;99.90
12926;DHT22;6529;50.566;9.774;2023-02-10T01:51:46;-2.80;99.90
12926;DHT22;6529;50.566;9.774;2023-02-10T01:54:21;-2.80;99.90
12926;DHT22;6529;50.566;9.774;2023-02-10T01:56:49;-2.70;99.90
12926;DHT22;6529;50.566;9.774;2023-02-10T01:59:16;-2.70;99.90
12926;DHT22;6529;50.566;9.774;2023-02-10T02:01:43;-2.60;99.90
12926;DHT22;6529;50.566;9.774;2023-02-10T02:04:08;-2.60;99.90
12926;DHT22;6529;50.566;9.774;2023-02-10T02:06:34;-2.50;99.90
12926;DHT22;6529;50.566;9.774;2023-02-10T02:09:01;-2.40;99.90
12926;DHT22;6529;50.566;9.774;2023-02-10T02:20:08;-2.20;99.90
12926;DHT22;6529;50.566;9.774;2023-02-10T02:32:10;-2.00;99.90
12926;DHT22;6529;50.566;9.774;2023-02-10T02:34:59;-2.00;99.90
12926;DHT22;6529;50.566;9.774;2023-02-10T02:37:37;-2.00;99.90
12926;DHT22;6529;50.566;9.774;2023-02-10T02:40:03;-2.00;99.90
12926;DHT22;6529;50.566;9.774;2023-02-10T02:42:31;-2.00;99.90
12926;DHT22;6529;50.566;9.774;2023-02-10T02:45:00;-2.00;99.90
12926;DHT22;6529;50.566;9.774;2023-02-10T02:50:26;-1.90;99.90
12926;DHT22;6529;50.566;9.774;2023-02-10T03:01:13;-1.70;99.90
12926;DHT22;6529;50.566;9.774;2023-02-10T03:03:40;-1.60;99.90
12926;DHT22;6529;50.566;9.774;2023-02-10T03:06:06;-1.60;99.90
12926;DHT22;6529;50.566;9.774;2023-02-10T03:08:34;-1.60;99.90
12926;DHT22;6529;50.566;9.774;2023-02-10T03:11:00;-1.50;99.90
12926;DHT22;6529;50.566;9.774;2023-02-10T03:13:26;-1.40;99.90
12926;DHT22;6529;50.566;9.774;2023-02-10T03:15:51;-1.40;99.90
12926;DHT22;6529;50.566;9.774;2023-02-10T03:18:17;-1.30;99.90
12926;DHT22;6529;50.566;9.774;2023-02-10T03:20:43;-1.20;99.90
12926;DHT22;6529;50.566;9.774;2023-02-10T03:23:09;-1.20;99.90
12926;DHT22;6529;50.566;9.774;2023-02-10T03:25:35;-1.20;99.90
12926;DHT22;6529;50.566;9.774;2023-02-10T03:28:01;-1.10;99.90
12926;DHT22;6529;50.566;9.774;2023-02-10T03:30:26;-1.10;99.90
12926;DHT22;6529;50.566;9.774;2023-02-10T03:32:52;-1.20;99.90
12926;DHT22;6529;50.566;9.774;2023-02-10T03:35:19;-1.20;99.90
12926;DHT22;6529;50.566;9.774;2023-02-10T03:37:44;-1.20;99.90
12926;DHT22;6529;50.566;9.774;2023-02-10T03:40:11;-1.20;99.90
12926;DHT22;6529;50.566;9.774;2023-02-10T03:42:36;-1.20;99.90
12926;DHT22;6529;50.566;9.774;2023-02-10T03:45:02;-1.20;99.90
12926;DHT22;6529;50.566;9.774;2023-02-10T03:47:27;-1.20;99.90
12926;DHT22;6529;50.566;9.774;2023-02-10T03:49:53;-1.10;99.90
12926;DHT22;6529;50.566;9.774;2023-02-10T03:52:18;-1.10;99.90
12926;DHT22;6529;50.566;9.774;2023-02-10T03:54:44;-1.10;99.90
12926;DHT22;6529;50.566;9.774;2023-02-10T03:57:10;-1.10;99.90
12926;DHT22;6529;50.566;9.774;2023-02-10T03:59:36;-1.00;99.90
12926;DHT22;6529;50.566;9.774;2023-02-10T04:02:02;-1.00;99.90
12926;DHT22;6529;50.566;9.774;2023-02-10T04:04:28;-1.00;99.90
12926;DHT22;6529;50.566;9.774;2023-02-10T04:06:53;-1.00;99.90
12926;DHT22;6529;50.566;9.774;2023-02-10T04:09:19;-0.90;99.90
12926;DHT22;6529;50.566;9.774;2023-02-10T04:11:44;-0.90;99.90
12926;DHT22;6529;50.566;9.774;2023-02-10T04:14:10;-0.90;99.90
12926;DHT22;6529;50.566;9.774;2023-02-10T04:16:36;-0.90;99.90
12926;DHT22;6529;50.566;9.774;2023-02-10T04:19:02;-0.90;99.90
12926;DHT22;6529;50.566;9.774;2023-02-10T04:21:27;-0.90;99.90
12926;DHT22;6529;50.566;9.774;2023-02-10T04:23:53;-0.90;99.90
12926;DHT22;6529;50.566;9.774;2023-02-10T04:26:19;-0.90;99.90
12926;DHT22;6529;50.566;9.774;2023-02-10T04:28:44;-0.80;99.90
12926;DHT22;6529;50.566;9.774;2023-02-10T04:31:10;-0.80;99.90
12926;DHT22;6529;50.566;9.774;2023-02-10T04:33:36;-0.80;99.90
12926;DHT22;6529;50.566;9.774;2023-02-10T04:36:02;-0.80;99.90
12926;DHT22;6529;50.566;9.774;2023-02-10T04:38:29;-0.70;99.90
12926;DHT22;6529;50.566;9.774;2023-02-10T04:40:54;-0.80;99.90
12926;DHT22;6529;50.566;9.774;2023-02-10T04:43:20;-0.80;99.90
12926;DHT22;6529;50.566;9.774;2023-02-10T04:45:46;-0.80;99.90
12926;DHT22;6529;50.566;9.774;2023-02-10T04:48:12;-0.80;99.90
12926;DHT22;6529;50.566;9.774;2023-02-10T04:50:39;-0.80;99.90
12926;DHT22;6529;50.566;9.774;2023-02-10T04:53:05;-0.80;99.90
12926;DHT22;6529;50.566;9.774;2023-02-10T04:55:31;-0.80;99.90
12926;DHT22;6529;50.566;9.774;2023-02-10T04:57:57;-0.80;99.90
12926;DHT22;6529;50.566;9.774;2023-02-10T05:00:23;-0.70;99.90
12926;DHT22;6529;50.566;9.774;2023-02-10T05:02:48;-0.70;99.90
12926;DHT22;6529;50.566;9.774;2023-02-10T05:05:14;-0.70;99.90
12926;DHT22;6529;50.566;9.774;2023-02-10T05:07:40;-0.70;99.90
12926;DHT22;6529;50.566;9.774;2023-02-10T05:10:06;-0.70;99.90
12926;DHT22;6529;50.566;9.774;2023-02-10T05:12:31;-0.70;99.90
12926;DHT22;6529;50.566;9.774;2023-02-10T05:14:57;-0.70;99.90
12926;DHT22;6529;50.566;9.774;2023-02-10T05:17:22;-0.60;99.90
12926;DHT22;6529;50.566;9.774;2023-02-10T05:19:48;-0.60;99.90
12926;DHT22;6529;50.566;9.774;2023-02-10T05:22:14;-0.60;99.90
12926;DHT22;6529;50.566;9.774;2023-02-10T05:24:39;-0.60;99.90
12926;DHT22;6529;50.566;9.774;2023-02-10T05:27:05;-0.60;99.90
12926;DHT22;6529;50.566;9.774;2023-02-10T05:29:31;-0.60;99.90
12926;DHT22;6529;50.566;9.774;2023-02-10T05:31:56;-0.60;99.90
12926;DHT22;6529;50.566;9.774;2023-02-10T05:34:22;-0.70;99.90
12926;DHT22;6529;50.566;9.774;2023-02-10T05:36:48;-0.60;99.90
12926;DHT22;6529;50.566;9.774;2023-02-10T05:39:13;-0.60;99.90
12926;DHT22;6529;50.566;9.774;2023-02-10T05:41:48;-0.60;99.90
12926;DHT22;6529;50.566;9.774;2023-02-10T05:44:14;-0.50;99.90
12926;DHT22;6529;50.566;9.774;2023-02-10T05:46:39;-0.60;99.90
12926;DHT22;6529;50.566;9.774;2023-02-10T05:49:05;-0.60;99.90
12926;DHT22;6529;50.566;9.774;2023-02-10T05:51:31;-0.60;99.90
12926;DHT22;6529;50.566;9.774;2023-02-10T05:53:56;-0.50;99.90
12926;DHT22;6529;50.566;9.774;2023-02-10T05:56:22;-0.50;99.90
12926;DHT22;6529;50.566;9.774;2023-02-10T05:58:47;-0.60;99.90
12926;DHT22;6529;50.566;9.774;2023-02-10T06:01:13;-0.60;99.90
12926;DHT22;6529;50.566;9.774;2023-02-10T06:03:39;-0.60;99.90
12926;DHT22;6529;50.566;9.774;2023-02-10T06:06:04;-0.60;99.90
12926;DHT22;6529;50.566;9.774;2023-02-10T06:08:30;-0.60;99.90
12926;DHT22;6529;50.566;9.774;2023-02-10T06:10:56;-0.60;99.90
12926;DHT22;6529;50.566;9.774;2023-02-10T06:13:22;-0.60;99.90
12926;DHT22;6529;50.566;9.774;2023-02-10T06:15:47;-0.60;99.90
12926;DHT22;6529;50.566;9.774;2023-02-10T06:18:13;-0.60;99.90
12926;DHT22;6529;50.566;9.774;2023-02-10T06:20:39;-0.60;99.90
12926;DHT22;6529;50.566;9.774;2023-02-10T06:23:04;-0.60;99.90
12926;DHT22;6529;50.566;9.774;2023-02-10T06:25:30;-0.50;99.90
12926;DHT22;6529;50.566;9.774;2023-02-10T06:27:56;-0.50;99.90
12926;DHT22;6529;50.566;9.774;2023-02-10T06:30:21;-0.50;99.90
12926;DHT22;6529;50.566;9.774;2023-02-10T06:32:47;-0.50;99.90
12926;DHT22;6529;50.566;9.774;2023-02-10T06:35:13;-0.40;99.90
12926;DHT22;6529;50.566;9.774;2023-02-10T06:37:39;-0.40;99.90
12926;DHT22;6529;50.566;9.774;2023-02-10T06:40:06;-0.40;99.90
12926;DHT22;6529;50.566;9.774;2023-02-10T06:42:32;-0.40;99.90
12926;DHT22;6529;50.566;9.774;2023-02-10T06:44:57;-0.40;99.90
12926;DHT22;6529;50.566;9.774;2023-02-10T06:47:23;-0.40;99.90
12926;DHT22;6529;50.566;9.774;2023-02-10T06:49:49;-0.50;99.90
12926;DHT22;6529;50.566;9.774;2023-02-10T06:52:14;-0.50;99.90
12926;DHT22;6529;50.566;9.774;2023-02-10T06:54:40;-0.50;99.90
12926;DHT22;6529;50.566;9.774;2023-02-10T06:57:06;-0.50;99.90
12926;DHT22;6529;50.566;9.774;2023-02-10T06:59:33;-0.40;99.90
12926;DHT22;6529;50.566;9.774;2023-02-10T07:01:58;-0.50;99.90
12926;DHT22;6529;50.566;9.774;2023-02-10T07:04:29;-0.40;99.90
12926;DHT22;6529;50.566;9.774;2023-02-10T07:06:56;-0.40;99.90
12926;DHT22;6529;50.566;9.774;2023-02-10T07:09:22;-0.40;99.90
12926;DHT22;6529;50.566;9.774;2023-02-10T07:11:48;-0.40;99.90
12926;DHT22;6529;50.566;9.774;2023-02-10T07:14:14;-0.40;99.90
12926;DHT22;6529;50.566;9.774;2023-02-10T07:16:39;-0.40;99.90
12926;DHT22;6529;50.566;9.774;2023-02-10T07:19:05;-0.40;99.90
12926;DHT22;6529;50.566;9.774;2023-02-10T07:21:31;-0.30;99.90
12926;DHT22;6529;50.566;9.774;2023-02-10T07:23:56;-0.30;99.90
12926;DHT22;6529;50.566;9.774;2023-02-10T07:26:22;-0.30;99.90
12926;DHT22;6529;50.566;9.774;2023-02-10T07:28:48;-0.30;99.90
12926;DHT22;6529;50.566;9.774;2023-02-10T07:31:14;-0.30;99.90
12926;DHT22;6529;50.566;9.774;2023-02-10T07:33:40;-0.20;99.90
12926;DHT22;6529;50.566;9.774;2023-02-10T07:36:06;-0.20;99.90
12926;DHT22;6529;50.566;9.774;2023-02-10T07:38:32;-0.20;99.90
12926;DHT22;6529;50.566;9.774;2023-02-10T07:40:58;-0.20;99.90
12926;DHT22;6529;50.566;9.774;2023-02-10T07:43:24;-0.10;99.90
12926;DHT22;6529;50.566;9.774;2023-02-10T07:45:49;-0.10;99.90
12926;DHT22;6529;50.566;9.774;2023-02-10T07:48:18;-0.20;99.90
12926;DHT22;6529;50.566;9.774;2023-02-10T07:50:45;-0.10;99.90
12926;DHT22;6529;50.566;9.774;2023-02-10T07:53:11;-0.10;99.90
12926;DHT22;6529;50.566;9.774;2023-02-10T07:55:37;-0.10;99.90
12926;DHT22;6529;50.566;9.774;2023-02-10T07:58:04;-0.10;99.90
12926;DHT22;6529;50.566;9.774;2023-02-10T08:00:30;-0.10;99.90
12926;DHT22;6529;50.566;9.774;2023-02-10T08:02:56;-0.10;99.90
12926;DHT22;6529;50.566;9.774;2023-02-10T08:05:21;-0.10;99.90
12926;DHT22;6529;50.566;9.774;2023-02-10T08:07:48;0.00;99.90
12926;DHT22;6529;50.566;9.774;2023-02-10T08:10:13;0.00;99.90
12926;DHT22;6529;50.566;9.774;2023-02-10T08:12:39;0.00;99.90
12926;DHT22;6529;50.566;9.774;2023-02-10T08:15:06;0.00;99.90
12926;DHT22;6529;50.566;9.774;2023-02-10T08:17:31;0.10;99.90
12926;DHT22;6529;50.566;9.774;2023-02-10T08:19:57;0.10;99.90
12926;DHT22;6529;50.566;9.774;2023-02-10T08:22:23;0.20;99.90
12926;DHT22;6529;50.566;9.774;2023-02-10T08:24:48;0.20;99.90
12926;DHT22;6529;50.566;9.774;2023-02-10T08:27:14;0.20;99.90
12926;DHT22;6529;50.566;9.774;2023-02-10T08:29:40;0.30;99.90
12926;DHT22;6529;50.566;9.774;2023-02-10T08:32:06;0.70;99.90
12926;DHT22;6529;50.566;9.774;2023-02-10T08:34:31;0.80;99.90
12926;DHT22;6529;50.566;9.774;2023-02-10T08:36:57;0.70;99.90
12926;DHT22;6529;50.566;9.774;2023-02-10T08:39:22;0.60;99.90
12926;DHT22;6529;50.566;9.774;2023-02-10T08:41:48;0.60;99.90
12926;DHT22;6529;50.566;9.774;2023-02-10T08:44:14;0.60;99.90
12926;DHT22;6529;50.566;9.774;2023-02-10T08:46:40;0.50;99.90
12926;DHT22;6529;50.566;9.774;2023-02-10T08:49:05;0.60;99.90
12926;DHT22;6529;50.566;9.774;2023-02-10T08:51:31;0.50;99.90
12926;DHT22;6529;50.566;9.774;2023-02-10T08:54:00;0.50;99.90
12926;DHT22;6529;50.566;9.774;2023-02-10T08:56:26;0.50;99.90
12926;DHT22;6529;50.566;9.774;2023-02-10T08:58:52;0.40;99.90
12926;DHT22;6529;50.566;9.774;2023-02-10T09:01:21;0.40;99.90
12926;DHT22;6529;50.566;9.774;2023-02-10T09:03:48;0.40;99.90
12926;DHT22;6529;50.566;9.774;2023-02-10T09:06:24;0.40;99.90
12926;DHT22;6529;50.566;9.774;2023-02-10T09:08:51;0.50;99.90
12926;DHT22;6529;50.566;9.774;2023-02-10T09:11:18;0.60;99.90
12926;DHT22;6529;50.566;9.774;2023-02-10T09:13:44;0.60;99.90
12926;DHT22;6529;50.566;9.774;2023-02-10T09:16:10;0.60;99.90
12926;DHT22;6529;50.566;9.774;2023-02-10T09:18:36;0.70;99.90
12926;DHT22;6529;50.566;9.774;2023-02-10T09:21:02;0.60;99.90
12926;DHT22;6529;50.566;9.774;2023-02-10T09:23:28;0.60;99.90
12926;DHT22;6529;50.566;9.774;2023-02-10T09:25:58;0.60;99.90
12926;DHT22;6529;50.566;9.774;2023-02-10T09:28:24;0.60;99.90
12926;DHT22;6529;50.566;9.774;2023-02-10T09:30:50;0.60;99.90
12926;DHT22;6529;50.566;9.774;2023-02-10T09:33:16;0.60;99.90
12926;DHT22;6529;50.566;9.774;2023-02-10T09:35:43;0.70;99.90
12926;DHT22;6529;50.566;9.774;2023-02-10T09:38:10;0.70;99.90
12926;DHT22;6529;50.566;9.774;2023-02-10T09:40:50;0.80;99.90
12926;DHT22;6529;50.566;9.774;2023-02-10T09:46:11;0.80;99.90
12926;DHT22;6529;50.566;9.774;2023-02-10T09:53:59;0.80;99.90
12926;DHT22;6529;50.566;9.774;2023-02-10T09:56:25;0.90;99.90
12926;DHT22;6529;50.566;9.774;2023-02-10T09:58:54;0.90;99.90
12926;DHT22;6529;50.566;9.774;2023-02-10T10:01:28;1.00;99.90
12926;DHT22;6529;50.566;9.774;2023-02-10T10:03:58;0.90;99.90
12926;DHT22;6529;50.566;9.774;2023-02-10T10:06:31;1.00;99.90
12926;DHT22;6529;50.566;9.774;2023-02-10T10:11:49;1.10;99.90
12926;DHT22;6529;50.566;9.774;2023-02-10T10:19:36;1.30;99.90
12926;DHT22;6529;50.566;9.774;2023-02-10T10:24:58;1.40;99.90
12926;DHT22;6529;50.566;9.774;2023-02-10T10:30:17;1.40;99.90
12926;DHT22;6529;50.566;9.774;2023-02-10T10:32:48;1.40;99.90
12926;DHT22;6529;50.566;9.774;2023-02-10T10:35:30;1.40;99.90
12926;DHT22;6529;50.566;9.774;2023-02-10T10:37:57;1.40;99.90
12926;DHT22;6529;50.566;9.774;2023-02-10T10:40:27;1.40;99.90
12926;DHT22;6529;50.566;9.774;2023-02-10T10:42:56;1.50;99.90
12926;DHT22;6529;50.566;9.774;2023-02-10T10:45:39;1.60;99.90
12926;DHT22;6529;50.566;9.774;2023-02-10T10:48:19;1.60;99.90
12926;DHT22;6529;50.566;9.774;2023-02-10T10:50:50;1.80;99.90
12926;DHT22;6529;50.566;9.774;2023-02-10T10:53:22;2.10;99.90
12926;DHT22;6529;50.566;9.774;2023-02-10T10:55:54;2.30;99.90
12926;DHT22;6529;50.566;9.774;2023-02-10T10:58:31;2.40;99.90
12926;DHT22;6529;50.566;9.774;2023-02-10T11:01:01;2.60;99.90
12926;DHT22;6529;50.566;9.774;2023-02-10T11:03:27;2.60;99.90
12926;DHT22;6529;50.566;9.774;2023-02-10T11:06:20;2.60;99.90
12926;DHT22;6529;50.566;9.774;2023-02-10T11:08:58;2.70;99.90
12926;DHT22;6529;50.566;9.774;2023-02-10T11:11:40;3.50;99.90
12926;DHT22;6529;50.566;9.774;2023-02-10T11:14:17;3.40;99.90
12926;DHT22;6529;50.566;9.774;2023-02-10T11:16:48;3.40;99.90
12926;DHT22;6529;50.566;9.774;2023-02-10T11:19:23;3.40;99.90
12926;DHT22;6529;50.566;9.774;2023-02-10T11:21:49;3.20;99.90
12926;DHT22;6529;50.566;9.774;2023-02-10T11:24:31;3.30;99.90
12926;DHT22;6529;50.566;9.774;2023-02-10T11:27:03;3.30;99.90
12926;DHT22;6529;50.566;9.774;2023-02-10T11:29:44;3.30;99.90
12926;DHT22;6529;50.566;9.774;2023-02-10T11:32:29;3.40;99.90
12926;DHT22;6529;50.566;9.774;2023-02-10T11:34:58;3.50;99.90
12926;DHT22;6529;50.566;9.774;2023-02-10T11:37:28;3.70;99.90
12926;DHT22;6529;50.566;9.774;2023-02-10T11:39:57;3.90;99.90
12926;DHT22;6529;50.566;9.774;2023-02-10T11:42:27;4.00;99.90
12926;DHT22;6529;50.566;9.774;2023-02-10T11:47:30;3.90;99.90
12926;DHT22;6529;50.566;9.774;2023-02-10T11:49:57;3.80;99.90
12926;DHT22;6529;50.566;9.774;2023-02-10T11:52:26;3.70;99.90
12926;DHT22;6529;50.566;9.774;2023-02-10T11:54:54;3.60;99.90
12926;DHT22;6529;50.566;9.774;2023-02-10T12:01:01;3.30;99.90
12926;DHT22;6529;50.566;9.774;2023-02-10T12:03:54;3.20;99.90
12926;DHT22;6529;50.566;9.774;2023-02-10T12:11:49;3.00;99.90
12926;DHT22;6529;50.566;9.774;2023-02-10T12:17:28;2.80;99.90
12926;DHT22;6529;50.566;9.774;2023-02-10T12:31:04;2.80;99.90
12926;DHT22;6529;50.566;9.774;2023-02-10T12:36:29;2.70;99.90
12926;DHT22;6529;50.566;9.774;2023-02-10T12:39:05;2.60;99.90
12926;DHT22;6529;50.566;9.774;2023-02-10T12:44:34;2.50;99.90
12926;DHT22;6529;50.566;9.774;2023-02-10T12:50:03;2.40;99.90
12926;DHT22;6529;50.566;9.774;2023-02-10T12:53:07;2.30;99.90
12926;DHT22;6529;50.566;9.774;2023-02-10T12:55:48;2.30;99.90
12926;DHT22;6529;50.566;9.774;2023-02-10T12:58:41;2.30;99.90
12926;DHT22;6529;50.566;9.774;2023-02-10T13:01:16;2.20;99.90
12926;DHT22;6529;50.566;9.774;2023-02-10T13:03:46;2.20;99.90
12926;DHT22;6529;50.566;9.774;2023-02-10T13:06:35;2.20;99.90
12926;DHT22;6529;50.566;9.774;2023-02-10T13:09:17;2.30;99.90
12926;DHT22;6529;50.566;9.774;2023-02-10T13:12:03;2.40;99.90
12926;DHT22;6529;50.566;9.774;2023-02-10T13:14:31;2.40;99.90
12926;DHT22;6529;50.566;9.774;2023-02-10T13:16:59;2.40;99.90
12926;DHT22;6529;50.566;9.774;2023-02-10T13:36:05;2.60;99.90
12926;DHT22;6529;50.566;9.774;2023-02-10T13:38:35;2.60;99.90
12926;DHT22;6529;50.566;9.774;2023-02-10T13:41:01;2.70;99.90
12926;DHT22;6529;50.566;9.774;2023-02-10T13:43:56;2.70;99.90
12926;DHT22;6529;50.566;9.774;2023-02-10T13:46:27;2.70;99.90
12926;DHT22;6529;50.566;9.774;2023-02-10T13:48:55;2.70;99.90
12926;DHT22;6529;50.566;9.774;2023-02-10T13:51:37;2.70;99.90
12926;DHT22;6529;50.566;9.774;2023-02-10T13:54:04;2.80;99.90
12926;DHT22;6529;50.566;9.774;2023-02-10T13:56:32;2.80;99.90
12926;DHT22;6529;50.566;9.774;2023-02-10T14:03:59;2.90;99.90
12926;DHT22;6529;50.566;9.774;2023-02-10T14:06:39;2.80;99.90
12926;DHT22;6529;50.566;9.774;2023-02-10T14:11:45;2.80;99.90
12926;DHT22;6529;50.566;9.774;2023-02-10T14:14:27;2.90;99.90
12926;DHT22;6529;50.566;9.774;2023-02-10T14:19:42;2.90;99.90
12926;DHT22;6529;50.566;9.774;2023-02-10T14:22:32;3.00;99.90
12926;DHT22;6529;50.566;9.774;2023-02-10T14:25:17;3.00;99.90
12926;DHT22;6529;50.566;9.774;2023-02-10T14:27:52;2.90;99.90
12926;DHT22;6529;50.566;9.774;2023-02-10T14:30:30;2.90;99.90
12926;DHT22;6529;50.566;9.774;2023-02-10T14:32:57;3.00;99.90
12926;DHT22;6529;50.566;9.774;2023-02-10T14:35:25;2.90;99.90
12926;DHT22;6529;50.566;9.774;2023-02-10T14:37:53;3.00;99.90
12926;DHT22;6529;50.566;9.774;2023-02-10T14:40:21;3.00;99.90
12926;DHT22;6529;50.566;9.774;2023-02-10T14:42:48;2.90;99.90
12926;DHT22;6529;50.566;9.774;2023-02-10T14:45:25;2.80;99.90
12926;DHT22;6529;50.566;9.774;2023-02-10T14:47:56;2.80;99.90
12926;DHT22;6529;50.566;9.774;2023-02-10T14:50:23;2.80;99.90
12926;DHT22;6529;50.566;9.774;2023-02-10T14:52:50;2.80;99.90
12926;DHT22;6529;50.566;9.774;2023-02-10T14:55:36;2.70;99.90
12926;DHT22;6529;50.566;9.774;2023-02-10T14:58:15;2.70;99.90
12926;DHT22;6529;50.566;9.774;2023-02-10T15:03:31;2.60;99.90
12926;DHT22;6529;50.566;9.774;2023-02-10T15:05:57;2.60;99.90
12926;DHT22;6529;50.566;9.774;2023-02-10T15:11:24;2.60;99.90
12926;DHT22;6529;50.566;9.774;2023-02-10T15:14:43;2.60;99.90
12926;DHT22;6529;50.566;9.774;2023-02-10T15:17:15;2.50;99.90
12926;DHT22;6529;50.566;9.774;2023-02-10T15:22:36;2.60;99.90
12926;DHT22;6529;50.566;9.774;2023-02-10T15:27:53;2.60;99.90
12926;DHT22;6529;50.566;9.774;2023-02-10T15:30:24;2.70;99.90
12926;DHT22;6529;50.566;9.774;2023-02-10T15:32:54;2.70;99.90
12926;DHT22;6529;50.566;9.774;2023-02-10T15:35:21;2.70;99.90
12926;DHT22;6529;50.566;9.774;2023-02-10T15:37:49;2.70;99.90
12926;DHT22;6529;50.566;9.774;2023-02-10T15:40:19;2.60;99.90
12926;DHT22;6529;50.566;9.774;2023-02-10T15:43:05;2.50;99.90
12926;DHT22;6529;50.566;9.774;2023-02-10T15:45:31;2.50;99.90
12926;DHT22;6529;50.566;9.774;2023-02-10T15:48:02;2.40;99.90
12926;DHT22;6529;50.566;9.774;2023-02-10T15:50:30;2.40;99.90
12926;DHT22;6529;50.566;9.774;2023-02-10T15:52:57;2.40;99.90
12926;DHT22;6529;50.566;9.774;2023-02-10T15:55:37;2.30;99.90
12926;DHT22;6529;50.566;9.774;2023-02-10T15:58:03;2.30;99.90
12926;DHT22;6529;50.566;9.774;2023-02-10T16:00:34;2.40;99.90
12926;DHT22;6529;50.566;9.774;2023-02-10T16:03:01;2.30;99.90
12926;DHT22;6529;50.566;9.774;2023-02-10T16:05:27;2.30;99.90
12926;DHT22;6529;50.566;9.774;2023-02-10T16:07:55;2.20;99.90
12926;DHT22;6529;50.566;9.774;2023-02-10T16:10:24;2.20;99.90
12926;DHT22;6529;50.566;9.774;2023-02-10T16:12:51;2.10;99.90
12926;DHT22;6529;50.566;9.774;2023-02-10T16:15:20;2.10;99.90
12926;DHT22;6529;50.566;9.774;2023-02-10T16:17:50;2.00;99.90
12926;DHT22;6529;50.566;9.774;2023-02-10T16:20:17;2.00;99.90
12926;DHT22;6529;50.566;9.774;2023-02-10T16:22:44;1.90;99.90
12926;DHT22;6529;50.566;9.774;2023-02-10T16:25:10;2.00;99.90
12926;DHT22;6529;50.566;9.774;2023-02-10T16:27:35;1.90;99.90
12926;DHT22;6529;50.566;9.774;2023-02-10T16:30:01;1.90;99.90
12926;DHT22;6529;50.566;9.774;2023-02-10T16:32:28;1.90;99.90
12926;DHT22;6529;50.566;9.774;2023-02-10T16:34:53;1.80;99.90
12926;DHT22;6529;50.566;9.774;2023-02-10T16:37:20;1.80;99.90
12926;DHT22;6529;50.566;9.774;2023-02-10T16:39:47;1.80;99.90
12926;DHT22;6529;50.566;9.774;2023-02-10T16:42:13;1.80;99.90
12926;DHT22;6529;50.566;9.774;2023-02-10T16:44:39;1.70;99.90
12926;DHT22;6529;50.566;9.774;2023-02-10T16:47:04;1.70;99.90
12926;DHT22;6529;50.566;9.774;2023-02-10T16:49:30;1.70;99.90
12926;DHT22;6529;50.566;9.774;2023-02-10T16:51:55;1.60;99.90
12926;DHT22;6529;50.566;9.774;2023-02-10T16:54:21;1.60;99.90
12926;DHT22;6529;50.566;9.774;2023-02-10T16:56:48;1.60;99.90
12926;DHT22;6529;50.566;9.774;2023-02-10T16:59:17;1.50;99.90
12926;DHT22;6529;50.566;9.774;2023-02-10T17:01:44;1.50;99.90
12926;DHT22;6529;50.566;9.774;2023-02-10T17:04:10;1.40;99.90
12926;DHT22;6529;50.566;9.774;2023-02-10T17:06:47;1.40;99.90
12926;DHT22;6529;50.566;9.774;2023-02-10T17:09:19;1.40;99.90
12926;DHT22;6529;50.566;9.774;2023-02-10T17:11:45;1.40;99.90
12926;DHT22;6529;50.566;9.774;2023-02-10T17:14:11;1.50;99.90
12926;DHT22;6529;50.566;9.774;2023-02-10T17:16:39;1.50;99.90
12926;DHT22;6529;50.566;9.774;2023-02-10T17:19:06;1.50;99.90
12926;DHT22;6529;50.566;9.774;2023-02-10T17:21:32;1.60;99.90
12926;DHT22;6529;50.566;9.774;2023-02-10T17:23:59;1.50;99.90
12926;DHT22;6529;50.566;9.774;2023-02-10T17:26:24;1.50;99.90
12926;DHT22;6529;50.566;9.774;2023-02-10T17:28:50;1.50;99.90
12926;DHT22;6529;50.566;9.774;2023-02-10T17:31:18;1.50;99.90
12926;DHT22;6529;50.566;9.774;2023-02-10T17:33:44;1.50;99.90
12926;DHT22;6529;50.566;9.774;2023-02-10T17:36:17;1.50;99.90
12926;DHT22;6529;50.566;9.774;2023-02-10T17:38:43;1.50;99.90
12926;DHT22;6529;50.566;9.774;2023-02-10T17:41:13;1.60;99.90
12926;DHT22;6529;50.566;9.774;2023-02-10T17:43:39;1.50;99.90
12926;DHT22;6529;50.566;9.774;2023-02-10T17:46:05;1.50;99.90
12926;DHT22;6529;50.566;9.774;2023-02-10T17:48:31;1.50;99.90
12926;DHT22;6529;50.566;9.774;2023-02-10T17:51:02;1.40;99.90
12926;DHT22;6529;50.566;9.774;2023-02-10T17:53:28;1.30;99.90
12926;DHT22;6529;50.566;9.774;2023-02-10T17:55:54;1.30;99.90
12926;DHT22;6529;50.566;9.774;2023-02-10T17:58:19;1.20;99.90
12926;DHT22;6529;50.566;9.774;2023-02-10T18:00:45;1.10;99.90
12926;DHT22;6529;50.566;9.774;2023-02-10T18:03:11;1.00;99.90
12926;DHT22;6529;50.566;9.774;2023-02-10T18:05:37;1.00;99.90
12926;DHT22;6529;50.566;9.774;2023-02-10T18:08:05;1.00;99.90
12926;DHT22;6529;50.566;9.774;2023-02-10T18:10:30;0.90;99.90